sensor_id;sensor_type;location;lat;lon;timestamp;P1;durP1;ratioP1;P2;durP2;ratioP2
6023;SDS011;3040;42.654;23.296;2023-04-22T00:00:32;8.93;;;8.23;;
6023;SDS011;3040;42.654;23.296;2023-04-22T00:02:59;10.57;;;9.60;;
6023;SDS011;3040;42.654;23.296;2023-04-22T00:05:29;8.13;;;7.63;;
6023;SDS011;3040;42.654;23.296;2023-04-22T00:07:56;7.50;;;7.10;;
6023;SDS011;3040;42.654;23.296;2023-04-22T00:10:23;8.63;;;7.47;;
6023;SDS011;3040;42.654;23.296;2023-04-22T00:12:50;10.87;;;8.97;;
6023;SDS011;3040;42.654;23.296;2023-04-22T00:15:17;9.47;;;8.57;;
6023;SDS011;3040;42.654;23.296;2023-04-22T00:17:46;8.03;;;6.87;;
6023;SDS011;3040;42.654;23.296;2023-04-22T00:20:13;6.80;;;6.20;;
6023;SDS011;3040;42.654;23.296;2023-04-22T00:22:41;7.07;;;5.70;;
6023;SDS011;3040;42.654;23.296;2023-04-22T00:25:08;7.50;;;6.90;;
6023;SDS011;3040;42.654;23.296;2023-04-22T00:27:35;7.23;;;6.67;;
6023;SDS011;3040;42.654;23.296;2023-04-22T00:30:02;7.17;;;6.67;;
6023;SDS011;3040;42.654;23.296;2023-04-22T00:32:29;7.93;;;7.27;;
6023;SDS011;3040;42.654;23.296;2023-04-22T00:34:56;7.70;;;7.30;;
6023;SDS011;3040;42.654;23.296;2023-04-22T00:37:23;8.40;;;7.77;;
6023;SDS011;3040;42.654;23.296;2023-04-22T00:39:52;8.33;;;7.53;;
6023;SDS011;3040;42.654;23.296;2023-04-22T00:42:18;8.03;;;7.43;;
6023;SDS011;3040;42.654;23.296;2023-04-22T00:44:46;8.23;;;7.73;;
6023;SDS011;3040;42.654;23.296;2023-04-22T00:47:15;8.13;;;7.50;;
6023;SDS011;3040;42.654;23.296;2023-04-22T00:49:42;8.27;;;7.63;;
6023;SDS011;3040;42.654;23.296;2023-04-22T00:52:09;6.93;;;6.30;;
6023;SDS011;3040;42.654;23.296;2023-04-22T00:54:36;8.13;;;7.27;;
6023;SDS011;3040;42.654;23.296;2023-04-22T00:57:04;8.77;;;7.93;;
6023;SDS011;3040;42.654;23.296;2023-04-22T00:59:31;9.03;;;8.23;;
6023;SDS011;3040;42.654;23.296;2023-04-22T01:01:58;7.03;;;6.43;;
6023;SDS011;3040;42.654;23.296;2023-04-22T01:04:25;6.97;;;6.37;;
6023;SDS011;3040;42.654;23.296;2023-04-22T01:06:53;7.90;;;7.00;;
6023;SDS011;3040;42.654;23.296;2023-04-22T01:09:20;8.13;;;7.37;;
6023;SDS011;3040;42.654;23.296;2023-04-22T01:11:47;7.57;;;7.00;;
6023;SDS011;3040;42.654;23.296;2023-04-22T01:14:15;7.67;;;7.17;;
6023;SDS011;3040;42.654;23.296;2023-04-22T01:16:43;7.67;;;7.07;;
6023;SDS011;3040;42.654;23.296;2023-04-22T01:19:10;8.60;;;8.00;;
6023;SDS011;3040;42.654;23.296;2023-04-22T01:21:38;8.07;;;7.63;;
6023;SDS011;3040;42.654;23.296;2023-04-22T01:24:07;8.43;;;7.63;;
6023;SDS011;3040;42.654;23.296;2023-04-22T01:26:35;8.57;;;7.83;;
6023;SDS011;3040;42.654;23.296;2023-04-22T01:29:02;8.80;;;7.80;;
6023;SDS011;3040;42.654;23.296;2023-04-22T01:31:30;8.13;;;7.53;;
6023;SDS011;3040;42.654;23.296;2023-04-22T01:33:56;8.07;;;7.57;;
6023;SDS011;3040;42.654;23.296;2023-04-22T01:36:24;8.87;;;8.30;;
6023;SDS011;3040;42.654;23.296;2023-04-22T01:38:51;10.13;;;9.33;;
6023;SDS011;3040;42.654;23.296;2023-04-22T01:41:19;8.83;;;7.83;;
6023;SDS011;3040;42.654;23.296;2023-04-22T01:43:46;8.37;;;7.57;;
6023;SDS011;3040;42.654;23.296;2023-04-22T01:46:15;10.30;;;8.57;;
6023;SDS011;3040;42.654;23.296;2023-04-22T01:48:42;7.00;;;6.70;;
6023;SDS011;3040;42.654;23.296;2023-04-22T01:51:14;8.10;;;7.60;;
6023;SDS011;3040;42.654;23.296;2023-04-22T01:53:41;7.77;;;6.87;;
6023;SDS011;3040;42.654;23.296;2023-04-22T01:56:08;9.40;;;8.53;;
6023;SDS011;3040;42.654;23.296;2023-04-22T01:58:37;8.20;;;7.60;;
6023;SDS011;3040;42.654;23.296;2023-04-22T02:01:04;8.33;;;7.73;;
6023;SDS011;3040;42.654;23.296;2023-04-22T02:03:31;8.90;;;8.17;;
6023;SDS011;3040;42.654;23.296;2023-04-22T02:05:58;8.43;;;7.77;;
6023;SDS011;3040;42.654;23.296;2023-04-22T02:08:25;9.40;;;8.47;;
6023;SDS011;3040;42.654;23.296;2023-04-22T02:10:52;8.60;;;8.00;;
6023;SDS011;3040;42.654;23.296;2023-04-22T02:13:18;7.90;;;7.33;;
6023;SDS011;3040;42.654;23.296;2023-04-22T02:15:46;8.50;;;7.87;;
6023;SDS011;3040;42.654;23.296;2023-04-22T02:18:14;10.67;;;8.43;;
6023;SDS011;3040;42.654;23.296;2023-04-22T02:20:42;9.47;;;8.10;;
6023;SDS011;3040;42.654;23.296;2023-04-22T02:23:09;9.20;;;8.57;;
6023;SDS011;3040;42.654;23.296;2023-04-22T02:25:36;7.67;;;6.97;;
6023;SDS011;3040;42.654;23.296;2023-04-22T02:28:04;8.80;;;7.90;;
6023;SDS011;3040;42.654;23.296;2023-04-22T02:30:30;8.90;;;7.97;;
6023;SDS011;3040;42.654;23.296;2023-04-22T02:32:59;9.53;;;8.83;;
6023;SDS011;3040;42.654;23.296;2023-04-22T02:35:25;14.37;;;9.53;;
6023;SDS011;3040;42.654;23.296;2023-04-22T02:37:52;10.33;;;9.20;;
6023;SDS011;3040;42.654;23.296;2023-04-22T02:40:19;9.23;;;8.37;;
6023;SDS011;3040;42.654;23.296;2023-04-22T02:42:46;10.60;;;9.83;;
6023;SDS011;3040;42.654;23.296;2023-04-22T02:45:13;13.27;;;11.03;;
6023;SDS011;3040;42.654;23.296;2023-04-22T02:47:40;11.10;;;10.00;;
6023;SDS011;3040;42.654;23.296;2023-04-22T02:50:09;9.87;;;9.00;;
6023;SDS011;3040;42.654;23.296;2023-04-22T02:52:36;9.50;;;8.67;;
6023;SDS011;3040;42.654;23.296;2023-04-22T02:55:03;13.23;;;9.30;;
6023;SDS011;3040;42.654;23.296;2023-04-22T02:57:31;10.67;;;9.77;;
6023;SDS011;3040;42.654;23.296;2023-04-22T02:59:58;9.77;;;9.03;;
6023;SDS011;3040;42.654;23.296;2023-04-22T03:02:25;9.17;;;8.40;;
6023;SDS011;3040;42.654;23.296;2023-04-22T03:04:52;9.93;;;9.20;;
6023;SDS011;3040;42.654;23.296;2023-04-22T03:07:21;12.83;;;9.47;;
6023;SDS011;3040;42.654;23.296;2023-04-22T03:09:47;11.50;;;9.67;;
6023;SDS011;3040;42.654;23.296;2023-04-22T03:12:14;11.33;;;10.27;;
6023;SDS011;3040;42.654;23.296;2023-04-22T03:14:41;11.73;;;10.80;;
6023;SDS011;3040;42.654;23.296;2023-04-22T03:17:08;11.13;;;10.27;;
6023;SDS011;3040;42.654;23.296;2023-04-22T03:19:34;10.20;;;9.13;;
6023;SDS011;3040;42.654;23.296;2023-04-22T03:22:01;11.07;;;8.90;;
6023;SDS011;3040;42.654;23.296;2023-04-22T03:24:29;10.23;;;9.40;;
6023;SDS011;3040;42.654;23.296;2023-04-22T03:26:56;11.67;;;10.70;;
6023;SDS011;3040;42.654;23.296;2023-04-22T03:29:23;9.63;;;8.77;;
6023;SDS011;3040;42.654;23.296;2023-04-22T03:31:50;8.67;;;7.97;;
6023;SDS011;3040;42.654;23.296;2023-04-22T03:34:17;10.03;;;9.13;;
6023;SDS011;3040;42.654;23.296;2023-04-22T03:36:43;9.90;;;9.20;;
6023;SDS011;3040;42.654;23.296;2023-04-22T03:39:10;10.57;;;9.57;;
6023;SDS011;3040;42.654;23.296;2023-04-22T03:41:38;9.60;;;9.00;;
6023;SDS011;3040;42.654;23.296;2023-04-22T03:44:05;10.07;;;9.13;;
6023;SDS011;3040;42.654;23.296;2023-04-22T03:46:32;11.07;;;10.37;;
6023;SDS011;3040;42.654;23.296;2023-04-22T03:48:59;13.63;;;12.07;;
6023;SDS011;3040;42.654;23.296;2023-04-22T03:51:26;9.87;;;9.20;;
6023;SDS011;3040;42.654;23.296;2023-04-22T03:53:53;16.70;;;10.40;;
6023;SDS011;3040;42.654;23.296;2023-04-22T03:56:20;12.47;;;10.10;;
6023;SDS011;3040;42.654;23.296;2023-04-22T03:58:49;11.63;;;10.63;;
6023;SDS011;3040;42.654;23.296;2023-04-22T04:01:16;11.53;;;10.40;;
6023;SDS011;3040;42.654;23.296;2023-04-22T04:03:43;12.60;;;11.50;;
6023;SDS011;3040;42.654;23.296;2023-04-22T04:06:10;22.77;;;14.27;;
6023;SDS011;3040;42.654;23.296;2023-04-22T04:08:38;21.67;;;14.23;;
6023;SDS011;3040;42.654;23.296;2023-04-22T04:11:06;22.07;;;12.73;;
6023;SDS011;3040;42.654;23.296;2023-04-22T04:13:34;18.83;;;12.30;;
6023;SDS011;3040;42.654;23.296;2023-04-22T04:16:02;25.40;;;12.00;;
6023;SDS011;3040;42.654;23.296;2023-04-22T04:18:29;17.60;;;11.60;;
6023;SDS011;3040;42.654;23.296;2023-04-22T04:20:56;20.20;;;13.43;;
6023;SDS011;3040;42.654;23.296;2023-04-22T04:23:23;18.13;;;12.27;;
6023;SDS011;3040;42.654;23.296;2023-04-22T04:25:51;14.07;;;12.27;;
6023;SDS011;3040;42.654;23.296;2023-04-22T04:28:18;15.27;;;11.20;;
6023;SDS011;3040;42.654;23.296;2023-04-22T04:30:45;17.20;;;11.10;;
6023;SDS011;3040;42.654;23.296;2023-04-22T04:33:13;13.07;;;11.63;;
6023;SDS011;3040;42.654;23.296;2023-04-22T04:35:40;12.03;;;10.93;;
6023;SDS011;3040;42.654;23.296;2023-04-22T04:38:08;14.77;;;10.83;;
6023;SDS011;3040;42.654;23.296;2023-04-22T04:40:36;11.50;;;10.50;;
6023;SDS011;3040;42.654;23.296;2023-04-22T04:43:03;20.20;;;10.67;;
6023;SDS011;3040;42.654;23.296;2023-04-22T04:45:32;13.20;;;11.80;;
6023;SDS011;3040;42.654;23.296;2023-04-22T04:48:01;14.93;;;11.87;;
6023;SDS011;3040;42.654;23.296;2023-04-22T04:50:29;17.10;;;12.27;;
6023;SDS011;3040;42.654;23.296;2023-04-22T04:52:56;19.60;;;12.93;;
6023;SDS011;3040;42.654;23.296;2023-04-22T04:55:22;15.40;;;12.20;;
6023;SDS011;3040;42.654;23.296;2023-04-22T04:57:49;12.27;;;11.07;;
6023;SDS011;3040;42.654;23.296;2023-04-22T05:00:16;16.10;;;12.37;;
6023;SDS011;3040;42.654;23.296;2023-04-22T05:02:43;13.27;;;12.13;;
6023;SDS011;3040;42.654;23.296;2023-04-22T05:05:10;11.70;;;10.57;;
6023;SDS011;3040;42.654;23.296;2023-04-22T05:07:38;11.33;;;10.43;;
6023;SDS011;3040;42.654;23.296;2023-04-22T05:10:05;11.07;;;10.23;;
6023;SDS011;3040;42.654;23.296;2023-04-22T05:12:33;12.57;;;10.67;;
6023;SDS011;3040;42.654;23.296;2023-04-22T05:15:00;11.70;;;10.13;;
6023;SDS011;3040;42.654;23.296;2023-04-22T05:17:28;11.93;;;10.90;;
6023;SDS011;3040;42.654;23.296;2023-04-22T05:19:54;11.10;;;10.37;;
6023;SDS011;3040;42.654;23.296;2023-04-22T05:22:21;11.83;;;11.03;;
6023;SDS011;3040;42.654;23.296;2023-04-22T05:24:50;11.20;;;9.97;;
6023;SDS011;3040;42.654;23.296;2023-04-22T05:27:16;10.80;;;10.10;;
6023;SDS011;3040;42.654;23.296;2023-04-22T05:29:43;12.00;;;10.77;;
6023;SDS011;3040;42.654;23.296;2023-04-22T05:32:10;11.17;;;10.37;;
6023;SDS011;3040;42.654;23.296;2023-04-22T05:34:37;12.43;;;10.73;;
6023;SDS011;3040;42.654;23.296;2023-04-22T05:37:04;12.57;;;11.57;;
6023;SDS011;3040;42.654;23.296;2023-04-22T05:39:30;16.20;;;11.90;;
6023;SDS011;3040;42.654;23.296;2023-04-22T05:41:59;12.70;;;11.20;;
6023;SDS011;3040;42.654;23.296;2023-04-22T05:44:26;11.90;;;10.63;;
6023;SDS011;3040;42.654;23.296;2023-04-22T05:46:52;12.07;;;11.13;;
6023;SDS011;3040;42.654;23.296;2023-04-22T05:49:19;12.30;;;11.20;;
6023;SDS011;3040;42.654;23.296;2023-04-22T05:51:46;11.73;;;10.83;;
6023;SDS011;3040;42.654;23.296;2023-04-22T05:54:13;13.07;;;12.13;;
6023;SDS011;3040;42.654;23.296;2023-04-22T05:56:40;13.97;;;11.87;;
6023;SDS011;3040;42.654;23.296;2023-04-22T05:59:08;13.17;;;11.90;;
6023;SDS011;3040;42.654;23.296;2023-04-22T06:01:35;13.17;;;11.80;;
6023;SDS011;3040;42.654;23.296;2023-04-22T06:04:02;15.30;;;12.43;;
6023;SDS011;3040;42.654;23.296;2023-04-22T06:06:30;14.30;;;12.80;;
6023;SDS011;3040;42.654;23.296;2023-04-22T06:08:57;14.87;;;12.53;;
6023;SDS011;3040;42.654;23.296;2023-04-22T06:11:24;13.17;;;11.97;;
6023;SDS011;3040;42.654;23.296;2023-04-22T06:13:51;13.90;;;12.70;;
6023;SDS011;3040;42.654;23.296;2023-04-22T06:16:19;14.43;;;13.27;;
6023;SDS011;3040;42.654;23.296;2023-04-22T06:18:47;14.03;;;12.70;;
6023;SDS011;3040;42.654;23.296;2023-04-22T06:21:14;13.57;;;12.40;;
6023;SDS011;3040;42.654;23.296;2023-04-22T06:23:41;13.70;;;12.77;;
6023;SDS011;3040;42.654;23.296;2023-04-22T06:26:08;12.57;;;11.17;;
6023;SDS011;3040;42.654;23.296;2023-04-22T06:28:35;14.40;;;10.97;;
6023;SDS011;3040;42.654;23.296;2023-04-22T06:31:01;13.40;;;12.10;;
6023;SDS011;3040;42.654;23.296;2023-04-22T06:33:30;12.70;;;11.77;;
6023;SDS011;3040;42.654;23.296;2023-04-22T06:35:56;13.00;;;12.03;;
6023;SDS011;3040;42.654;23.296;2023-04-22T06:38:24;12.70;;;11.67;;
6023;SDS011;3040;42.654;23.296;2023-04-22T06:40:51;12.33;;;11.33;;
6023;SDS011;3040;42.654;23.296;2023-04-22T06:43:18;10.73;;;10.03;;
6023;SDS011;3040;42.654;23.296;2023-04-22T06:45:44;10.80;;;9.90;;
6023;SDS011;3040;42.654;23.296;2023-04-22T06:48:11;10.60;;;9.57;;
6023;SDS011;3040;42.654;23.296;2023-04-22T06:50:39;12.77;;;10.57;;
6023;SDS011;3040;42.654;23.296;2023-04-22T06:53:06;10.73;;;9.57;;
6023;SDS011;3040;42.654;23.296;2023-04-22T06:55:34;10.97;;;9.90;;
6023;SDS011;3040;42.654;23.296;2023-04-22T06:58:00;12.17;;;11.07;;
6023;SDS011;3040;42.654;23.296;2023-04-22T07:00:27;17.80;;;11.77;;
6023;SDS011;3040;42.654;23.296;2023-04-22T07:02:55;12.47;;;11.37;;
6023;SDS011;3040;42.654;23.296;2023-04-22T07:05:21;10.70;;;9.90;;
6023;SDS011;3040;42.654;23.296;2023-04-22T07:07:50;12.17;;;11.17;;
6023;SDS011;3040;42.654;23.296;2023-04-22T07:10:16;10.60;;;9.90;;
6023;SDS011;3040;42.654;23.296;2023-04-22T07:12:43;13.33;;;9.87;;
6023;SDS011;3040;42.654;23.296;2023-04-22T07:15:10;10.43;;;9.40;;
6023;SDS011;3040;42.654;23.296;2023-04-22T07:17:37;10.80;;;9.70;;
6023;SDS011;3040;42.654;23.296;2023-04-22T07:20:05;10.07;;;9.20;;
6023;SDS011;3040;42.654;23.296;2023-04-22T07:22:32;9.23;;;8.53;;
6023;SDS011;3040;42.654;23.296;2023-04-22T07:25:00;12.13;;;8.93;;
6023;SDS011;3040;42.654;23.296;2023-04-22T07:27:27;9.23;;;8.30;;
6023;SDS011;3040;42.654;23.296;2023-04-22T07:29:55;9.27;;;8.53;;
6023;SDS011;3040;42.654;23.296;2023-04-22T07:32:21;8.30;;;7.57;;
6023;SDS011;3040;42.654;23.296;2023-04-22T07:34:48;7.97;;;7.50;;
6023;SDS011;3040;42.654;23.296;2023-04-22T07:37:15;7.90;;;7.20;;
6023;SDS011;3040;42.654;23.296;2023-04-22T07:39:42;7.67;;;7.17;;
6023;SDS011;3040;42.654;23.296;2023-04-22T07:42:10;10.03;;;6.47;;
6023;SDS011;3040;42.654;23.296;2023-04-22T07:44:39;12.83;;;7.10;;
6023;SDS011;3040;42.654;23.296;2023-04-22T07:47:07;7.47;;;6.80;;
6023;SDS011;3040;42.654;23.296;2023-04-22T07:49:34;7.20;;;6.77;;
6023;SDS011;3040;42.654;23.296;2023-04-22T07:52:02;7.77;;;6.97;;
6023;SDS011;3040;42.654;23.296;2023-04-22T07:54:29;7.87;;;6.90;;
6023;SDS011;3040;42.654;23.296;2023-04-22T07:56:56;6.20;;;5.70;;
6023;SDS011;3040;42.654;23.296;2023-04-22T07:59:24;7.70;;;7.10;;
6023;SDS011;3040;42.654;23.296;2023-04-22T08:01:55;7.97;;;7.17;;
6023;SDS011;3040;42.654;23.296;2023-04-22T08:04:23;14.20;;;7.87;;
6023;SDS011;3040;42.654;23.296;2023-04-22T08:06:50;7.47;;;6.00;;
6023;SDS011;3040;42.654;23.296;2023-04-22T08:09:18;6.23;;;5.83;;
6023;SDS011;3040;42.654;23.296;2023-04-22T08:11:45;6.30;;;5.70;;
6023;SDS011;3040;42.654;23.296;2023-04-22T08:14:12;6.87;;;6.27;;
6023;SDS011;3040;42.654;23.296;2023-04-22T08:16:40;6.57;;;5.90;;
6023;SDS011;3040;42.654;23.296;2023-04-22T08:19:07;7.57;;;6.90;;
6023;SDS011;3040;42.654;23.296;2023-04-22T08:21:34;10.53;;;5.40;;
6023;SDS011;3040;42.654;23.296;2023-04-22T08:24:02;6.40;;;5.80;;
6023;SDS011;3040;42.654;23.296;2023-04-22T08:26:29;5.97;;;5.47;;
6023;SDS011;3040;42.654;23.296;2023-04-22T08:28:56;9.60;;;5.70;;
6023;SDS011;3040;42.654;23.296;2023-04-22T08:31:23;6.60;;;5.77;;
6023;SDS011;3040;42.654;23.296;2023-04-22T08:33:51;9.33;;;5.80;;
6023;SDS011;3040;42.654;23.296;2023-04-22T08:36:18;9.00;;;8.33;;
6023;SDS011;3040;42.654;23.296;2023-04-22T08:38:48;9.30;;;8.43;;
6023;SDS011;3040;42.654;23.296;2023-04-22T08:41:14;6.80;;;6.17;;
6023;SDS011;3040;42.654;23.296;2023-04-22T08:43:43;7.47;;;6.37;;
6023;SDS011;3040;42.654;23.296;2023-04-22T08:46:11;5.60;;;5.00;;
6023;SDS011;3040;42.654;23.296;2023-04-22T08:48:40;4.73;;;4.53;;
6023;SDS011;3040;42.654;23.296;2023-04-22T08:51:08;8.90;;;5.57;;
6023;SDS011;3040;42.654;23.296;2023-04-22T08:53:38;5.83;;;5.43;;
6023;SDS011;3040;42.654;23.296;2023-04-22T08:56:05;9.20;;;4.63;;
6023;SDS011;3040;42.654;23.296;2023-04-22T08:58:34;5.47;;;4.30;;
6023;SDS011;3040;42.654;23.296;2023-04-22T09:01:02;5.90;;;4.27;;
6023;SDS011;3040;42.654;23.296;2023-04-22T09:03:29;4.50;;;4.30;;
6023;SDS011;3040;42.654;23.296;2023-04-22T09:05:56;4.23;;;3.87;;
6023;SDS011;3040;42.654;23.296;2023-04-22T09:08:26;7.73;;;4.60;;
6023;SDS011;3040;42.654;23.296;2023-04-22T09:10:54;4.93;;;4.53;;
6023;SDS011;3040;42.654;23.296;2023-04-22T09:13:25;4.03;;;3.73;;
6023;SDS011;3040;42.654;23.296;2023-04-22T09:15:52;6.37;;;4.10;;
6023;SDS011;3040;42.654;23.296;2023-04-22T09:18:19;4.30;;;4.10;;
6023;SDS011;3040;42.654;23.296;2023-04-22T09:20:47;5.33;;;4.00;;
6023;SDS011;3040;42.654;23.296;2023-04-22T09:23:15;5.10;;;3.97;;
6023;SDS011;3040;42.654;23.296;2023-04-22T09:25:44;5.80;;;4.70;;
6023;SDS011;3040;42.654;23.296;2023-04-22T09:28:16;7.70;;;4.23;;
6023;SDS011;3040;42.654;23.296;2023-04-22T09:30:44;5.90;;;4.53;;
6023;SDS011;3040;42.654;23.296;2023-04-22T09:33:12;3.70;;;3.50;;
6023;SDS011;3040;42.654;23.296;2023-04-22T09:35:40;4.07;;;3.50;;
6023;SDS011;3040;42.654;23.296;2023-04-22T09:38:08;6.43;;;4.50;;
6023;SDS011;3040;42.654;23.296;2023-04-22T09:40:37;3.83;;;3.60;;
6023;SDS011;3040;42.654;23.296;2023-04-22T09:43:08;4.07;;;3.63;;
6023;SDS011;3040;42.654;23.296;2023-04-22T09:45:36;9.90;;;3.00;;
6023;SDS011;3040;42.654;23.296;2023-04-22T09:48:05;2.87;;;2.63;;
6023;SDS011;3040;42.654;23.296;2023-04-22T09:50:34;3.13;;;2.93;;
6023;SDS011;3040;42.654;23.296;2023-04-22T09:53:02;3.50;;;3.20;;
6023;SDS011;3040;42.654;23.296;2023-04-22T09:55:32;4.93;;;3.90;;
6023;SDS011;3040;42.654;23.296;2023-04-22T09:58:05;4.67;;;4.20;;
6023;SDS011;3040;42.654;23.296;2023-04-22T10:00:38;3.93;;;3.63;;
6023;SDS011;3040;42.654;23.296;2023-04-22T10:03:06;4.17;;;3.77;;
6023;SDS011;3040;42.654;23.296;2023-04-22T10:05:34;4.00;;;3.80;;
6023;SDS011;3040;42.654;23.296;2023-04-22T10:08:02;6.80;;;3.80;;
6023;SDS011;3040;42.654;23.296;2023-04-22T10:10:30;3.23;;;2.80;;
6023;SDS011;3040;42.654;23.296;2023-04-22T10:12:58;4.17;;;2.70;;
6023;SDS011;3040;42.654;23.296;2023-04-22T10:15:25;4.53;;;2.63;;
6023;SDS011;3040;42.654;23.296;2023-04-22T10:17:58;6.50;;;2.00;;
6023;SDS011;3040;42.654;23.296;2023-04-22T10:20:27;30.33;;;2.60;;
6023;SDS011;3040;42.654;23.296;2023-04-22T10:22:55;2.63;;;2.00;;
6023;SDS011;3040;42.654;23.296;2023-04-22T10:25:22;2.80;;;2.17;;
6023;SDS011;3040;42.654;23.296;2023-04-22T10:27:53;3.03;;;1.80;;
6023;SDS011;3040;42.654;23.296;2023-04-22T10:30:27;3.37;;;3.03;;
6023;SDS011;3040;42.654;23.296;2023-04-22T10:32:55;15.47;;;3.37;;
6023;SDS011;3040;42.654;23.296;2023-04-22T10:35:26;1.70;;;1.60;;
6023;SDS011;3040;42.654;23.296;2023-04-22T10:37:54;5.20;;;2.13;;
6023;SDS011;3040;42.654;23.296;2023-04-22T10:40:21;2.03;;;1.87;;
6023;SDS011;3040;42.654;23.296;2023-04-22T10:42:49;4.23;;;2.43;;
6023;SDS011;3040;42.654;23.296;2023-04-22T10:45:17;2.47;;;2.37;;
6023;SDS011;3040;42.654;23.296;2023-04-22T10:47:49;2.43;;;2.23;;
6023;SDS011;3040;42.654;23.296;2023-04-22T10:50:17;3.27;;;2.03;;
6023;SDS011;3040;42.654;23.296;2023-04-22T10:52:48;2.23;;;2.03;;
6023;SDS011;3040;42.654;23.296;2023-04-22T10:55:17;2.13;;;1.70;;
6023;SDS011;3040;42.654;23.296;2023-04-22T10:57:46;3.40;;;1.97;;
6023;SDS011;3040;42.654;23.296;2023-04-22T11:03:10;5.43;;;3.20;;
6023;SDS011;3040;42.654;23.296;2023-04-22T11:05:39;2.33;;;2.13;;
6023;SDS011;3040;42.654;23.296;2023-04-22T11:08:12;2.77;;;2.67;;
6023;SDS011;3040;42.654;23.296;2023-04-22T11:10:42;3.73;;;3.37;;
6023;SDS011;3040;42.654;23.296;2023-04-22T11:13:10;5.00;;;2.17;;
6023;SDS011;3040;42.654;23.296;2023-04-22T11:15:39;2.37;;;2.03;;
6023;SDS011;3040;42.654;23.296;2023-04-22T11:18:08;1.83;;;1.80;;
6023;SDS011;3040;42.654;23.296;2023-04-22T11:20:37;2.20;;;2.10;;
6023;SDS011;3040;42.654;23.296;2023-04-22T11:23:04;5.10;;;2.20;;
6023;SDS011;3040;42.654;23.296;2023-04-22T11:25:32;2.83;;;2.03;;
6023;SDS011;3040;42.654;23.296;2023-04-22T11:27:59;4.37;;;2.10;;
6023;SDS011;3040;42.654;23.296;2023-04-22T11:30:26;2.20;;;2.10;;
6023;SDS011;3040;42.654;23.296;2023-04-22T11:32:56;3.37;;;1.70;;
6023;SDS011;3040;42.654;23.296;2023-04-22T11:35:26;2.37;;;1.40;;
6023;SDS011;3040;42.654;23.296;2023-04-22T11:37:56;1.33;;;1.20;;
6023;SDS011;3040;42.654;23.296;2023-04-22T11:40:25;2.97;;;1.43;;
6023;SDS011;3040;42.654;23.296;2023-04-22T11:42:55;2.63;;;1.87;;
6023;SDS011;3040;42.654;23.296;2023-04-22T11:45:23;6.07;;;1.83;;
6023;SDS011;3040;42.654;23.296;2023-04-22T11:47:50;3.83;;;1.57;;
6023;SDS011;3040;42.654;23.296;2023-04-22T11:50:20;7.57;;;2.17;;
6023;SDS011;3040;42.654;23.296;2023-04-22T11:52:49;12.97;;;1.90;;
6023;SDS011;3040;42.654;23.296;2023-04-22T11:55:18;3.27;;;1.50;;
6023;SDS011;3040;42.654;23.296;2023-04-22T11:57:50;2.73;;;1.30;;
6023;SDS011;3040;42.654;23.296;2023-04-22T12:00:23;3.20;;;1.80;;
6023;SDS011;3040;42.654;23.296;2023-04-22T12:02:56;2.70;;;1.60;;
6023;SDS011;3040;42.654;23.296;2023-04-22T12:05:33;3.70;;;1.53;;
6023;SDS011;3040;42.654;23.296;2023-04-22T12:08:02;2.13;;;1.70;;
6023;SDS011;3040;42.654;23.296;2023-04-22T12:10:31;5.80;;;1.63;;
6023;SDS011;3040;42.654;23.296;2023-04-22T12:13:00;2.53;;;1.53;;
6023;SDS011;3040;42.654;23.296;2023-04-22T12:15:36;2.73;;;1.73;;
6023;SDS011;3040;42.654;23.296;2023-04-22T12:18:03;3.37;;;1.30;;
6023;SDS011;3040;42.654;23.296;2023-04-22T12:20:31;2.03;;;1.93;;
6023;SDS011;3040;42.654;23.296;2023-04-22T12:22:58;2.60;;;2.10;;
6023;SDS011;3040;42.654;23.296;2023-04-22T12:25:25;2.53;;;1.80;;
6023;SDS011;3040;42.654;23.296;2023-04-22T12:27:53;2.80;;;2.03;;
6023;SDS011;3040;42.654;23.296;2023-04-22T12:30:22;3.17;;;2.07;;
6023;SDS011;3040;42.654;23.296;2023-04-22T12:32:49;3.67;;;1.73;;
6023;SDS011;3040;42.654;23.296;2023-04-22T12:35:16;1.73;;;1.63;;
6023;SDS011;3040;42.654;23.296;2023-04-22T12:37:43;5.40;;;1.87;;
6023;SDS011;3040;42.654;23.296;2023-04-22T12:40:10;2.50;;;2.07;;
6023;SDS011;3040;42.654;23.296;2023-04-22T12:42:37;7.57;;;1.60;;
6023;SDS011;3040;42.654;23.296;2023-04-22T12:45:04;2.03;;;1.83;;
6023;SDS011;3040;42.654;23.296;2023-04-22T12:47:34;5.37;;;1.80;;
6023;SDS011;3040;42.654;23.296;2023-04-22T12:50:01;2.83;;;1.87;;
6023;SDS011;3040;42.654;23.296;2023-04-22T12:52:30;2.27;;;2.07;;
6023;SDS011;3040;42.654;23.296;2023-04-22T12:54:58;2.27;;;2.03;;
6023;SDS011;3040;42.654;23.296;2023-04-22T12:57:25;2.40;;;2.30;;
6023;SDS011;3040;42.654;23.296;2023-04-22T12:59:52;9.60;;;4.20;;
6023;SDS011;3040;42.654;23.296;2023-04-22T13:02:19;3.23;;;2.87;;
6023;SDS011;3040;42.654;23.296;2023-04-22T13:04:47;2.33;;;2.23;;
6023;SDS011;3040;42.654;23.296;2023-04-22T13:07:14;1.90;;;1.80;;
6023;SDS011;3040;42.654;23.296;2023-04-22T13:09:42;3.17;;;2.07;;
6023;SDS011;3040;42.654;23.296;2023-04-22T13:12:09;2.67;;;1.90;;
6023;SDS011;3040;42.654;23.296;2023-04-22T13:14:36;2.30;;;1.63;;
6023;SDS011;3040;42.654;23.296;2023-04-22T13:17:03;1.60;;;1.50;;
6023;SDS011;3040;42.654;23.296;2023-04-22T13:19:30;3.30;;;3.00;;
6023;SDS011;3040;42.654;23.296;2023-04-22T13:22:00;3.27;;;2.10;;
6023;SDS011;3040;42.654;23.296;2023-04-22T13:24:27;3.13;;;1.90;;
6023;SDS011;3040;42.654;23.296;2023-04-22T13:26:54;1.83;;;1.67;;
6023;SDS011;3040;42.654;23.296;2023-04-22T13:29:22;2.40;;;2.00;;
6023;SDS011;3040;42.654;23.296;2023-04-22T13:31:50;2.37;;;1.40;;
6023;SDS011;3040;42.654;23.296;2023-04-22T13:34:16;2.00;;;1.73;;
6023;SDS011;3040;42.654;23.296;2023-04-22T13:36:43;2.43;;;2.20;;
6023;SDS011;3040;42.654;23.296;2023-04-22T13:39:11;1.40;;;1.30;;
6023;SDS011;3040;42.654;23.296;2023-04-22T13:41:38;3.60;;;3.07;;
6023;SDS011;3040;42.654;23.296;2023-04-22T13:44:05;10.43;;;2.47;;
6023;SDS011;3040;42.654;23.296;2023-04-22T13:46:32;2.70;;;1.10;;
6023;SDS011;3040;42.654;23.296;2023-04-22T13:48:59;1.60;;;1.50;;
6023;SDS011;3040;42.654;23.296;2023-04-22T13:51:25;1.80;;;1.70;;
6023;SDS011;3040;42.654;23.296;2023-04-22T13:53:52;5.63;;;1.80;;
6023;SDS011;3040;42.654;23.296;2023-04-22T13:56:21;1.60;;;1.50;;
6023;SDS011;3040;42.654;23.296;2023-04-22T13:58:49;3.50;;;3.20;;
6023;SDS011;3040;42.654;23.296;2023-04-22T14:01:15;8.03;;;7.47;;
6023;SDS011;3040;42.654;23.296;2023-04-22T14:03:43;2.53;;;1.77;;
6023;SDS011;3040;42.654;23.296;2023-04-22T14:06:10;2.80;;;2.60;;
6023;SDS011;3040;42.654;23.296;2023-04-22T14:08:37;2.60;;;2.40;;
6023;SDS011;3040;42.654;23.296;2023-04-22T14:11:05;1.60;;;1.50;;
6023;SDS011;3040;42.654;23.296;2023-04-22T14:13:34;1.73;;;1.60;;
6023;SDS011;3040;42.654;23.296;2023-04-22T14:16:01;1.83;;;1.50;;
6023;SDS011;3040;42.654;23.296;2023-04-22T14:18:31;2.50;;;1.40;;
6023;SDS011;3040;42.654;23.296;2023-04-22T14:21:00;6.57;;;2.53;;
6023;SDS011;3040;42.654;23.296;2023-04-22T14:23:27;11.17;;;1.90;;
6023;SDS011;3040;42.654;23.296;2023-04-22T14:25:55;1.60;;;1.50;;
6023;SDS011;3040;42.654;23.296;2023-04-22T14:28:22;1.97;;;1.30;;
6023;SDS011;3040;42.654;23.296;2023-04-22T14:30:50;1.40;;;1.30;;
6023;SDS011;3040;42.654;23.296;2023-04-22T14:33:18;5.87;;;2.10;;
6023;SDS011;3040;42.654;23.296;2023-04-22T14:35:45;2.33;;;2.13;;
6023;SDS011;3040;42.654;23.296;2023-04-22T14:38:12;1.80;;;1.70;;
6023;SDS011;3040;42.654;23.296;2023-04-22T14:40:39;2.30;;;1.70;;
6023;SDS011;3040;42.654;23.296;2023-04-22T14:43:06;2.37;;;1.60;;
6023;SDS011;3040;42.654;23.296;2023-04-22T14:45:33;1.47;;;1.47;;
6023;SDS011;3040;42.654;23.296;2023-04-22T14:48:01;2.27;;;1.60;;
6023;SDS011;3040;42.654;23.296;2023-04-22T14:50:28;2.13;;;1.73;;
6023;SDS011;3040;42.654;23.296;2023-04-22T14:52:55;2.80;;;1.43;;
6023;SDS011;3040;42.654;23.296;2023-04-22T14:55:22;2.07;;;1.53;;
6023;SDS011;3040;42.654;23.296;2023-04-22T14:57:50;1.60;;;1.50;;